Time;durP1;ratioP1;P1;durP2;ratioP2;P2;SDS_P1;SDS_P2;PMS_P1;PMS_P2;Temp;Humidity;BMP_temperature;BMP_pressure;BME280_temperature;BME280_humidity;BME280_pressure;Samples;Min_cycle;Max_cycle;Signal;HPM_P1;HPM_P2
2022/05/29 00:00:28;;;;;;;5.55;3.08;;;11.90;96.80;;;;;;6945351;28;20056;-87
2022/05/29 00:03:51;;;;;;;8.30;3.10;;;12.00;97.40;;;;;;6944836;28;20053;-88
2022/05/29 00:07:17;;;;;;;6.53;2.85;;;12.10;97.20;;;;;;6945466;28;20163;-86
2022/05/29 00:10:42;;;;;;;4.65;2.67;;;12.20;97.00;;;;;;6946143;28;20513;-88
2022/05/29 00:14:06;;;;;;;5.25;2.47;;;12.30;97.20;;;;;;6944986;28;20084;-86
2022/05/29 00:17:28;;;;;;;5.28;2.25;;;12.40;97.10;;;;;;6944222;28;20071;-86
2022/05/29 00:20:53;;;;;;;5.22;2.40;;;12.40;97.00;;;;;;6945094;28;20049;-86
2022/05/29 00:24:16;;;;;;;5.78;2.35;;;12.40;97.10;;;;;;6943551;28;20052;-86
2022/05/29 00:27:38;;;;;;;;;;;12.50;97.10;;;;;;6944990;28;20517;-86
2022/05/29 00:31:02;;;;;;;;;;;12.20;97.40;;;;;;6945135;28;19927;-86
2022/05/29 00:34:26;;;;;;;6.63;2.30;;;12.20;97.60;;;;;;6943909;28;19921;-87
2022/05/29 00:37:48;;;;;;;6.93;2.20;;;12.40;97.40;;;;;;6944327;28;20487;-87
2022/05/29 00:41:18;;;;;;;5.85;2.20;;;12.40;97.30;;;;;;6944002;28;20045;-86
2022/05/29 00:44:41;;;;;;;5.22;2.22;;;12.40;96.70;;;;;;6916658;28;20077;-87
2022/05/29 00:48:06;;;;;;;5.43;2.40;;;12.40;97.20;;;;;;6917396;28;20177;-86
2022/05/29 00:51:28;;;;;;;14.15;6.00;;;12.50;97.00;;;;;;6929048;28;20057;-86
2022/05/29 00:54:54;;;;;;;5.23;2.20;;;12.60;96.70;;;;;;6944029;28;20056;-85
2022/05/29 00:58:16;;;;;;;5.45;1.70;;;12.40;95.20;;;;;;6944109;28;20053;-88
2022/05/29 01:01:39;;;;;;;5.67;1.80;;;12.30;96.20;;;;;;6940847;28;20096;-87
2022/05/29 01:05:04;;;;;;;4.93;1.85;;;12.40;95.60;;;;;;6916998;28;20315;-88
2022/05/29 01:08:33;;;;;;;6.38;2.00;;;12.40;94.90;;;;;;6916924;28;20046;-87
2022/05/29 01:12:10;;;;;;;4.47;1.65;;;12.40;94.70;;;;;;6916676;28;20056;-88
2022/05/29 01:15:42;;;;;;;5.10;1.83;;;12.50;94.50;;;;;;6916979;28;20056;-87
2022/05/29 01:19:43;;;;;;;5.85;1.92;;;12.50;94.40;;;;;;6937643;28;20053;-86
2022/05/29 01:23:29;;;;;;;6.00;2.60;;;12.50;94.50;;;;;;6939244;28;20072;-87
2022/05/29 01:27:17;;;;;;;4.65;1.70;;;12.20;95.10;;;;;;6929147;28;20053;-87
2022/05/29 01:30:48;;;;;;;3.85;1.63;;;11.90;95.70;;;;;;6931750;28;20080;-87
2022/05/29 01:34:26;;;;;;;6.22;2.35;;;11.90;97.30;;;;;;6916587;28;20046;-88
2022/05/29 01:37:56;;;;;;;6.18;2.03;;;11.90;98.10;;;;;;6925260;28;20090;-88
2022/05/29 01:41:25;;;;;;;7.07;1.75;;;12.00;98.00;;;;;;6943178;28;20084;-86
2022/05/29 01:44:54;;;;;;;4.68;1.95;;;11.90;97.90;;;;;;6943092;28;20049;-87
2022/05/29 01:48:23;;;;;;;6.97;1.88;;;11.70;98.70;;;;;;6916440;28;20080;-86
2022/05/29 01:51:51;;;;;;;4.38;1.77;;;11.50;99.30;;;;;;6941829;28;20049;-87
2022/05/29 01:55:20;;;;;;;6.13;1.95;;;11.30;98.80;;;;;;6940664;28;20081;-86
2022/05/29 01:58:50;;;;;;;5.18;2.42;;;11.20;99.90;;;;;;6932472;28;20046;-86
2022/05/29 02:02:18;;;;;;;4.70;2.00;;;11.20;99.90;;;;;;6948854;28;20057;-86
2022/05/29 02:05:47;;;;;;;5.53;1.85;;;11.40;99.30;;;;;;6948706;28;20042;-88
2022/05/29 02:09:11;;;;;;;7.22;1.98;;;11.60;99.30;;;;;;6948878;28;20052;-86
2022/05/29 02:12:33;;;;;;;5.85;2.22;;;11.80;99.50;;;;;;6948052;28;20052;-87
2022/05/29 02:16:02;;;;;;;6.30;2.20;;;11.80;99.90;;;;;;6948102;28;20077;-87
2022/05/29 02:19:31;;;;;;;5.95;2.08;;;11.90;99.90;;;;;;6948742;28;20053;-86
2022/05/29 02:23:04;;;;;;;9.30;2.10;;;11.90;99.90;;;;;;6946872;28;20053;-85
2022/05/29 02:26:32;;;;;;;4.65;2.00;;;11.80;99.90;;;;;;6947932;28;20060;-87
2022/05/29 02:29:55;;;;;;;6.32;2.45;;;11.80;99.90;;;;;;6947828;28;20065;-87
2022/05/29 02:33:24;;;;;;;4.97;2.60;;;11.90;99.90;;;;;;6948049;28;20065;-87
2022/05/29 02:36:55;;;;;;;5.28;2.30;;;11.80;99.90;;;;;;6931648;28;20050;-85
2022/05/29 02:40:27;;;;;;;5.68;2.33;;;11.80;99.90;;;;;;6930446;28;20057;-86
2022/05/29 02:43:57;;;;;;;6.70;2.65;;;11.80;99.90;;;;;;6946844;28;20442;-88
2022/05/29 02:47:27;;;;;;;5.85;2.70;;;11.70;99.90;;;;;;6947583;28;20057;-87
2022/05/29 02:50:59;;;;;;;6.93;2.65;;;11.60;99.90;;;;;;6947024;28;20049;-87
2022/05/29 02:54:25;;;;;;;5.25;2.50;;;11.20;99.90;;;;;;6947141;28;20060;-88
2022/05/29 02:57:51;;;;;;;5.97;2.10;;;11.00;99.90;;;;;;6947937;28;20052;-87
2022/05/29 03:01:27;;;;;;;5.00;2.10;;;10.90;99.90;;;;;;6947916;28;20403;-88
2022/05/29 03:04:58;;;;;;;4.10;1.90;;;10.90;99.90;;;;;;6947466;28;20052;-88
2022/05/29 03:08:45;;;;;;;7.65;2.25;;;10.70;99.90;;;;;;6946701;28;20061;-86
2022/05/29 03:12:24;;;;;;;6.68;2.30;;;11.00;99.90;;;;;;6947310;28;20058;-87
2022/05/29 03:15:56;;;;;;;4.97;2.60;;;11.00;99.90;;;;;;6947105;28;20045;-87
2022/05/29 03:19:28;;;;;;;4.32;2.47;;;10.90;99.90;;;;;;6946261;28;20049;-87
2022/05/29 03:22:58;;;;;;;6.03;2.45;;;11.00;99.90;;;;;;6946747;28;20407;-87
2022/05/29 03:26:29;;;;;;;4.90;2.40;;;10.80;99.90;;;;;;6946766;28;20188;-87
2022/05/29 03:30:02;;;;;;;5.28;2.00;;;10.90;99.90;;;;;;6946561;28;20069;-87
2022/05/29 03:33:27;;;;;;;5.60;2.03;;;10.70;99.90;;;;;;6946671;28;20053;-86
2022/05/29 03:36:51;;;;;;;5.60;2.00;;;10.70;99.90;;;;;;6946357;28;20050;-87
2022/05/29 03:40:14;;;;;;;5.28;2.00;;;10.90;99.90;;;;;;6943435;28;20053;-87
2022/05/29 03:43:36;;;;;;;7.32;2.08;;;11.00;99.90;;;;;;6940744;28;20399;-87
2022/05/29 03:46:58;;;;;;;3.50;1.83;;;10.90;99.90;;;;;;6946262;28;20403;-86
2022/05/29 03:50:25;;;;;;;3.47;1.80;;;10.90;99.90;;;;;;6945690;28;20056;-87
2022/05/29 03:53:47;;;;;;;5.05;1.95;;;10.90;99.90;;;;;;6946017;28;20053;-86
2022/05/29 03:57:09;;;;;;;4.82;2.00;;;10.90;99.90;;;;;;6946263;28;20483;-88
2022/05/29 04:00:31;;;;;;;4.77;1.83;;;11.00;99.90;;;;;;6945826;28;20041;-86
2022/05/29 04:03:54;;;;;;;5.23;1.80;;;11.00;99.90;;;;;;6945669;28;20053;-88
2022/05/29 04:07:17;;;;;;;5.68;1.90;;;11.20;99.90;;;;;;6945651;28;20525;-86
2022/05/29 04:14:23;;;;;;;6.03;1.80;;;10.70;99.90;;;;;;6944648;28;20057;-87
2022/05/29 04:17:45;;;;;;;5.45;2.08;;;10.50;99.90;;;;;;6944971;28;20065;-87
2022/05/29 04:21:07;;;;;;;4.67;2.10;;;10.70;99.90;;;;;;6945305;28;20053;-88
2022/05/29 04:24:31;;;;;;;6.60;1.95;;;10.90;99.90;;;;;;6945725;28;20080;-88
2022/05/29 04:27:53;;;;;;;4.20;2.03;;;11.20;99.90;;;;;;6932303;28;20057;-87
2022/05/29 04:31:15;;;;;;;6.13;2.10;;;11.10;99.90;;;;;;6926289;28;20054;-87
2022/05/29 04:34:38;;;;;;;5.00;2.00;;;10.60;99.90;;;;;;6945099;28;20475;-87
2022/05/29 04:38:00;;;;;;;4.70;1.80;;;11.00;99.90;;;;;;6922407;28;20062;-90
2022/05/29 04:41:26;;;;;;;5.57;1.88;;;11.40;99.90;;;;;;6930144;28;20050;-89
2022/05/29 04:44:48;;;;;;;6.38;2.20;;;11.70;99.90;;;;;;6917850;28;20068;-86
2022/05/29 04:48:10;;;;;;;4.77;1.90;;;12.00;99.90;;;;;;6936533;28;20044;-85
2022/05/29 04:51:33;;;;;;;4.95;1.98;;;12.00;99.90;;;;;;6934036;28;20049;-85
2022/05/29 04:54:55;;;;;;;4.10;1.60;;;11.90;99.90;;;;;;6919521;28;20479;-87
2022/05/29 04:58:18;;;;;;;4.15;1.95;;;12.00;99.90;;;;;;6944177;28;20092;-88
2022/05/29 05:01:40;;;;;;;4.43;1.90;;;12.10;99.90;;;;;;6944132;28;20045;-89
2022/05/29 05:05:04;;;;;;;4.90;1.90;;;12.10;99.90;;;;;;6929677;28;20404;-87
2022/05/29 05:08:26;;;;;;;5.18;2.08;;;12.20;99.90;;;;;;6939612;28;20049;-87
2022/05/29 05:11:48;;;;;;;5.90;2.23;;;12.10;99.90;;;;;;6943872;28;20453;-87
2022/05/29 05:15:15;;;;;;;6.43;2.00;;;12.10;99.90;;;;;;6943771;28;20064;-86
2022/05/29 05:18:37;;;;;;;4.78;2.10;;;12.20;99.90;;;;;;6943117;28;20053;-84
2022/05/29 05:22:01;;;;;;;7.17;2.63;;;12.20;99.90;;;;;;6943118;28;20505;-85
2022/05/29 05:25:24;;;;;;;7.32;2.40;;;12.20;99.90;;;;;;6944096;28;20406;-88
2022/05/29 05:28:46;;;;;;;7.43;2.67;;;12.30;99.90;;;;;;6942950;28;20060;-87
2022/05/29 05:32:10;;;;;;;5.65;2.47;;;12.30;99.90;;;;;;6943547;28;20049;-87
2022/05/29 05:35:32;;;;;;;4.00;2.20;;;12.30;99.90;;;;;;6938485;28;20050;-90
2022/05/29 05:38:55;;;;;;;6.93;2.17;;;12.40;99.90;;;;;;6943575;28;20384;-91
2022/05/29 05:42:18;;;;;;;6.15;2.17;;;12.50;99.90;;;;;;6943093;28;20792;-88
2022/05/29 05:45:42;;;;;;;6.07;2.40;;;12.60;99.90;;;;;;6943563;28;20048;-88
2022/05/29 05:49:06;;;;;;;5.05;2.03;;;12.60;99.90;;;;;;6943533;28;20050;-89
2022/05/29 05:52:28;;;;;;;4.72;2.50;;;12.60;99.90;;;;;;6928669;28;20049;-85
2022/05/29 05:55:50;;;;;;;5.28;2.40;;;12.60;99.90;;;;;;6941295;28;20056;-84
2022/05/29 05:59:13;;;;;;;10.20;2.73;;;12.70;99.90;;;;;;6941216;28;20080;-85
2022/05/29 06:02:36;;;;;;;7.47;2.95;;;12.70;99.90;;;;;;6942822;28;20458;-84
2022/05/29 06:05:59;;;;;;;8.18;3.03;;;12.70;99.90;;;;;;6942399;28;20045;-86
2022/05/29 06:09:22;;;;;;;5.97;2.40;;;12.70;99.90;;;;;;6940126;28;20064;-86
2022/05/29 06:12:44;;;;;;;6.18;2.30;;;12.90;99.90;;;;;;6942295;28;20096;-84
2022/05/29 06:16:08;;;;;;;7.43;2.60;;;12.90;99.90;;;;;;6940860;28;20068;-85
2022/05/29 06:19:30;;;;;;;6.18;2.50;;;13.00;99.90;;;;;;6937139;28;20362;-85
2022/05/29 06:22:54;;;;;;;5.07;2.30;;;13.10;99.90;;;;;;6940832;28;20089;-85
2022/05/29 06:26:16;;;;;;;5.18;2.20;;;13.20;99.90;;;;;;6942121;28;20100;-84
2022/05/29 06:29:38;;;;;;;7.50;2.30;;;13.30;99.90;;;;;;6940204;28;20068;-84
2022/05/29 06:33:01;;;;;;;4.73;2.43;;;13.30;99.90;;;;;;6942426;28;20091;-85
2022/05/29 06:36:24;;;;;;;;;;;13.40;99.90;;;;;;6940967;28;20073;-87
2022/05/29 06:39:49;;;;;;;5.20;2.13;;;13.40;99.90;;;;;;6943297;28;19932;-85
2022/05/29 06:43:11;;;;;;;5.68;2.00;;;13.50;99.70;;;;;;6945224;28;20543;-85
2022/05/29 06:46:35;;;;;;;5.95;2.20;;;13.50;99.10;;;;;;6946698;28;20509;-85
2022/05/29 06:49:57;;;;;;;4.60;2.00;;;13.60;98.40;;;;;;6933418;28;20050;-87
2022/05/29 06:53:20;;;;;;;8.33;2.30;;;13.50;99.60;;;;;;6947061;28;20049;-84
2022/05/29 06:56:43;;;;;;;5.07;2.30;;;13.60;99.50;;;;;;6945209;28;20053;-86
2022/05/29 07:07:30;;;;;;;5.20;2.22;;;13.40;98.60;;;;;;6929172;28;20053;-84
2022/05/29 07:10:54;;;;;;;8.93;2.40;;;13.30;99.50;;;;;;6946430;28;20402;-84
2022/05/29 07:14:18;;;;;;;8.93;2.30;;;13.30;98.20;;;;;;6946250;28;20049;-84
2022/05/29 07:17:40;;;;;;;5.72;2.20;;;13.20;99.00;;;;;;6937470;28;20406;-84
2022/05/29 07:21:04;;;;;;;5.47;2.67;;;13.30;98.50;;;;;;6942804;28;20045;-85
2022/05/29 07:24:34;;;;;;;5.28;2.33;;;13.40;98.70;;;;;;6944055;28;20054;-84
2022/05/29 07:27:57;;;;;;;5.28;2.30;;;13.50;97.90;;;;;;6940325;28;20041;-85
2022/05/29 07:31:20;;;;;;;4.80;2.00;;;13.50;96.90;;;;;;6944227;28;20045;-85
2022/05/29 07:34:43;;;;;;;5.22;2.17;;;13.50;97.00;;;;;;6945342;28;20049;-84
2022/05/29 07:38:06;;;;;;;4.60;2.17;;;13.60;97.80;;;;;;6945237;28;20064;-84
2022/05/29 07:45:22;;;;;;;4.78;2.20;;;13.80;97.70;;;;;;6887125;28;20511;-84
2022/05/29 07:48:45;;;;;;;5.60;2.40;;;13.90;97.30;;;;;;6884133;28;20052;-85
2022/05/29 07:52:08;;;;;;;5.28;2.15;;;14.00;97.20;;;;;;6944233;28;20096;-84
2022/05/29 07:55:30;;;;;;;6.72;2.33;;;14.10;97.20;;;;;;6944446;28;20079;-86
2022/05/29 07:58:52;;;;;;;4.90;2.13;;;14.10;97.10;;;;;;6945254;28;20076;-84
2022/05/29 08:02:14;;;;;;;5.03;2.30;;;14.20;96.90;;;;;;6945245;28;20407;-85
2022/05/29 08:05:39;;;;;;;5.55;2.33;;;14.20;97.00;;;;;;6944961;28;20727;-86
2022/05/29 08:09:01;;;;;;;6.40;2.08;;;14.20;97.10;;;;;;6944831;28;20068;-86
2022/05/29 08:12:24;;;;;;;4.90;1.87;;;14.30;96.90;;;;;;6923960;28;20061;-88
2022/05/29 08:15:46;;;;;;;5.20;2.53;;;14.50;97.50;;;;;;6937152;28;20308;-89
2022/05/29 08:19:09;;;;;;;7.25;2.13;;;14.60;97.40;;;;;;6944386;28;20048;-84
2022/05/29 08:22:32;;;;;;;4.53;2.00;;;14.60;96.90;;;;;;6944270;28;20050;-87
